createdAt,value
2023-03-22T00:02:26.401Z,87.98
2023-03-22T00:17:28.913Z,87.98
2023-03-22T00:32:34.358Z,88.48
2023-03-22T00:47:36.837Z,88.22
2023-03-22T01:02:38.930Z,88.20
2023-03-22T01:17:41.122Z,88.22
2023-03-22T01:32:43.227Z,88.12
2023-03-22T01:47:58.664Z,88.39
2023-03-22T02:03:00.886Z,88.22
2023-03-22T02:18:11.565Z,88.26
2023-03-22T02:33:41.841Z,88.45
2023-03-22T02:48:49.987Z,88.68
2023-03-22T03:03:56.700Z,88.12
2023-03-22T03:19:25.783Z,88.59
2023-03-22T03:34:51.636Z,88.46
2023-03-22T03:49:53.673Z,88.60
2023-03-22T04:04:55.684Z,88.69
2023-03-22T04:19:57.932Z,88.73
2023-03-22T04:34:59.925Z,88.56
2023-03-22T04:50:01.918Z,88.28
2023-03-22T05:05:04.019Z,88.73
2023-03-22T05:20:10.458Z,88.92
2023-03-22T05:35:12.462Z,88.78
2023-03-22T05:50:17.494Z,89.12
2023-03-22T06:05:21.273Z,88.96
2023-03-22T06:20:23.332Z,89.04
2023-03-22T06:35:25.755Z,88.93
2023-03-22T06:50:28.595Z,88.56
2023-03-22T07:05:31.128Z,87.94
2023-03-22T07:20:37.196Z,87.63
2023-03-22T07:35:39.445Z,86.43
2023-03-22T07:50:42.319Z,83.86
2023-03-22T08:05:44.552Z,83.02
2023-03-22T08:20:46.767Z,82.59
2023-03-22T08:35:48.795Z,82.11
2023-03-22T08:50:50.948Z,82.18
2023-03-22T09:05:53.468Z,82.56
2023-03-22T09:20:55.679Z,84.37
2023-03-22T09:35:58.225Z,84.55
2023-03-22T09:51:02.880Z,84.30
2023-03-22T10:06:15.575Z,84.15
2023-03-22T10:21:19.617Z,83.55
2023-03-22T10:36:25.351Z,82.37
2023-03-22T10:51:36.139Z,83.02
2023-03-22T11:06:54.825Z,85.73
2023-03-22T11:21:59.393Z,87.25
2023-03-22T11:37:08.772Z,86.20
2023-03-22T11:52:16.862Z,82.47
2023-03-22T12:07:24.917Z,78.50
2023-03-22T12:22:32.645Z,77.86
2023-03-22T12:37:36.487Z,78.07
2023-03-22T12:52:45.707Z,78.36
2023-03-22T13:07:48.155Z,78.58
2023-03-22T13:22:50.122Z,78.17
2023-03-22T13:37:52.645Z,77.74
2023-03-22T13:53:04.466Z,77.94
2023-03-22T14:08:07.608Z,77.86
